Time;durP1;ratioP1;P1;durP2;ratioP2;P2;SDS_P1;SDS_P2;PMS_P1;PMS_P2;Temp;Humidity;BMP_temperature;BMP_pressure;BME280_temperature;BME280_humidity;BME280_pressure;Samples;Min_cycle;Max_cycle;Signal;HPM_P1;HPM_P2
2022/07/15 00:02:08;;;;;;;2.05;1.77;;;14.90;4.80;;;;;;5038385;27;34221;-76
2022/07/15 00:04:34;;;;;;;3.45;1.88;;;14.90;4.90;;;;;;5054891;28;34355;-76
2022/07/15 00:07:01;;;;;;;3.72;1.83;;;14.90;5.00;;;;;;5020661;28;35610;-76
2022/07/15 00:12:09;;;;;;;1.70;1.50;;;14.80;5.10;;;;;;5021700;28;34216;-76
2022/07/15 00:14:35;;;;;;;2.45;1.80;;;14.70;5.10;;;;;;5005243;28;34083;-76
2022/07/15 00:17:01;;;;;;;2.67;1.92;;;14.70;5.20;;;;;;5004739;28;36493;-76
2022/07/15 00:19:27;;;;;;;2.08;1.80;;;14.70;5.30;;;;;;5004963;28;34969;-76
2022/07/15 00:21:53;;;;;;;3.53;2.08;;;14.70;5.40;;;;;;5038453;28;34080;-76
2022/07/15 00:24:19;;;;;;;6.35;1.88;;;14.60;5.40;;;;;;5021665;28;34402;-76
2022/07/15 00:26:45;;;;;;;2.03;1.83;;;14.60;5.50;;;;;;5020986;28;35682;-76
2022/07/15 00:29:11;;;;;;;2.17;1.75;;;14.60;5.50;;;;;;5005033;28;34346;-76
2022/07/15 00:31:37;;;;;;;2.75;2.40;;;14.60;5.60;;;;;;5038230;28;34373;-76
2022/07/15 00:34:03;;;;;;;3.13;2.30;;;14.50;5.70;;;;;;5021767;28;34574;-76
2022/07/15 00:36:29;;;;;;;4.03;2.05;;;14.50;5.90;;;;;;5004722;28;35542;-76
2022/07/15 00:38:55;;;;;;;4.85;2.10;;;14.50;5.90;;;;;;5004649;28;34299;-76
2022/07/15 00:41:21;;;;;;;2.00;1.77;;;14.40;5.90;;;;;;5037681;27;34166;-76
2022/07/15 00:43:47;;;;;;;4.30;1.90;;;14.40;6.00;;;;;;5037263;28;34491;-76
2022/07/15 00:46:18;;;;;;;5.15;2.00;;;14.40;6.10;;;;;;5004686;28;35548;-76
2022/07/15 00:48:44;;;;;;;4.75;2.00;;;14.30;6.80;;;;;;5021052;28;34141;-76
2022/07/15 00:51:10;;;;;;;2.90;1.60;;;14.30;6.20;;;;;;5054347;28;34090;-76
2022/07/15 00:53:38;;;;;;;2.40;2.00;;;14.30;6.10;;;;;;5022275;28;34065;-76
2022/07/15 00:56:07;;;;;;;2.65;2.00;;;14.30;6.70;;;;;;5004594;28;35812;-76
2022/07/15 00:58:37;;;;;;;5.03;2.10;;;14.30;6.30;;;;;;5020762;28;34045;-77
2022/07/15 01:01:06;;;;;;;2.25;1.80;;;14.20;6.80;;;;;;5037641;28;34064;-76
2022/07/15 01:03:32;;;;;;;3.63;1.80;;;14.20;6.50;;;;;;5054001;28;34158;-76
2022/07/15 01:05:58;;;;;;;1.77;1.67;;;14.20;6.40;;;;;;5020760;28;35453;-76
2022/07/15 01:08:24;;;;;;;3.40;1.98;;;14.10;6.40;;;;;;5022002;28;34174;-76
2022/07/15 01:10:51;;;;;;;2.20;1.67;;;14.10;6.50;;;;;;5020593;28;34032;-76
2022/07/15 01:13:20;;;;;;;3.63;1.80;;;14.10;6.70;;;;;;5030341;28;34196;-76
2022/07/15 01:15:46;;;;;;;1.90;1.80;;;14.00;6.60;;;;;;5024187;28;34460;-76
2022/07/15 01:18:13;;;;;;;2.67;1.75;;;14.00;6.70;;;;;;5023416;28;34321;-76
2022/07/15 01:20:41;;;;;;;2.03;1.67;;;13.90;6.70;;;;;;5057472;28;34152;-77
2022/07/15 01:23:07;;;;;;;1.88;1.73;;;13.90;6.80;;;;;;5024374;28;34363;-77
2022/07/15 01:25:33;;;;;;;3.80;1.88;;;13.90;6.80;;;;;;5040166;28;35229;-76
2022/07/15 01:27:59;;;;;;;2.90;1.52;;;13.90;6.90;;;;;;5007183;28;34164;-76
2022/07/15 01:30:25;;;;;;;2.72;1.65;;;13.80;6.90;;;;;;5041504;28;34173;-76
2022/07/15 01:32:52;;;;;;;2.55;1.90;;;13.80;7.00;;;;;;5023584;28;34464;-76
2022/07/15 01:35:18;;;;;;;2.30;1.90;;;13.80;7.00;;;;;;5024043;28;36681;-76
2022/07/15 01:37:44;;;;;;;2.10;1.70;;;13.70;7.10;;;;;;5023737;28;34189;-76
2022/07/15 01:40:11;;;;;;;2.28;2.08;;;13.70;7.10;;;;;;5041617;27;34116;-76
2022/07/15 01:42:38;;;;;;;2.25;1.75;;;13.70;7.30;;;;;;5023756;28;34107;-76
2022/07/15 01:45:05;;;;;;;3.13;1.77;;;13.60;7.20;;;;;;5023637;28;36157;-76
2022/07/15 01:47:32;;;;;;;2.40;1.60;;;13.70;7.40;;;;;;5007203;28;34258;-76
2022/07/15 01:49:59;;;;;;;1.73;1.63;;;13.60;7.30;;;;;;5023920;28;34230;-76
2022/07/15 01:52:25;;;;;;;6.20;2.10;;;13.60;7.40;;;;;;5041218;28;34336;-76
2022/07/15 01:54:52;;;;;;;3.35;1.60;;;13.60;7.40;;;;;;5040796;28;34985;-76
2022/07/15 01:57:18;;;;;;;2.10;1.73;;;13.60;7.50;;;;;;5041675;27;34090;-77
2022/07/15 01:59:44;;;;;;;1.80;1.70;;;13.50;7.40;;;;;;5007220;28;34198;-76
2022/07/15 02:02:10;;;;;;;3.20;1.40;;;13.50;7.50;;;;;;5007443;28;34451;-76
2022/07/15 02:04:36;;;;;;;2.03;1.70;;;13.40;7.50;;;;;;5023528;28;34945;-76
2022/07/15 02:07:03;;;;;;;2.55;1.70;;;13.40;7.50;;;;;;5039851;28;34153;-76
2022/07/15 02:09:29;;;;;;;2.97;1.80;;;13.40;7.60;;;;;;5006864;28;34488;-76
2022/07/15 02:11:55;;;;;;;2.95;2.00;;;13.40;7.70;;;;;;5041135;28;34137;-76
2022/07/15 02:14:21;;;;;;;2.85;1.60;;;13.30;7.70;;;;;;5039692;28;35785;-76
2022/07/15 02:16:46;;;;;;;3.17;1.60;;;13.30;7.80;;;;;;5030263;28;34363;-76
2022/07/15 02:19:12;;;;;;;1.73;1.63;;;13.20;7.80;;;;;;5026426;28;34164;-77
2022/07/15 02:21:38;;;;;;;2.97;1.70;;;13.20;8.00;;;;;;5043478;28;34067;-76
2022/07/15 02:24:05;;;;;;;2.70;1.58;;;13.20;8.00;;;;;;5042988;27;35813;-76
2022/07/15 02:26:31;;;;;;;5.07;1.73;;;13.10;8.00;;;;;;5060868;28;34334;-76
2022/07/15 02:28:57;;;;;;;2.95;1.60;;;13.10;8.60;;;;;;5025646;28;34216;-76
2022/07/15 02:31:23;;;;;;;1.70;1.60;;;13.10;8.10;;;;;;5043350;28;34557;-76
2022/07/15 02:33:49;;;;;;;1.80;1.70;;;13.00;8.10;;;;;;5026208;28;35841;-76
2022/07/15 02:36:15;;;;;;;2.13;1.58;;;13.00;8.20;;;;;;5026588;28;34250;-77
2022/07/15 02:38:41;;;;;;;1.70;1.60;;;12.90;8.20;;;;;;5031597;28;34075;-76
2022/07/15 02:41:47;;;;;;;1.67;1.58;;;12.90;8.30;;;;;;5038094;27;34514;-76
2022/07/15 02:44:55;;;;;;;1.95;1.60;;;12.90;9.90;;;;;;5136816;27;35522;-76
2022/07/15 02:47:21;;;;;;;2.65;1.60;;;12.80;11.10;;;;;;5122251;27;34103;-77
2022/07/15 02:50:06;;;;;;;3.38;1.70;;;12.80;8.30;;;;;;5089383;27;34147;-76
2022/07/15 02:52:54;;;;;;;1.67;1.58;;;12.70;11.20;;;;;;5106452;27;34170;-77
2022/07/15 02:55:20;;;;;;;2.10;1.42;;;12.70;11.10;;;;;;5106270;27;35836;-76
2022/07/15 02:57:46;;;;;;;2.72;1.55;;;12.70;8.50;;;;;;5123097;27;34234;-77
2022/07/15 03:00:14;;;;;;;1.60;1.50;;;12.60;8.40;;;;;;5089026;28;34112;-76
2022/07/15 03:03:08;;;;;;;1.40;1.30;;;12.60;8.70;;;;;;5069307;28;34373;-77
2022/07/15 03:05:57;;;;;;;2.22;1.60;;;12.60;11.60;;;;;;5103810;28;34320;-77
2022/07/15 03:08:48;;;;;;;1.85;1.75;;;12.50;11.40;;;;;;5085946;28;34119;-76
2022/07/15 03:11:14;;;;;;;1.88;1.67;;;12.50;11.40;;;;;;5085709;28;34531;-76
2022/07/15 03:13:40;;;;;;;3.75;1.90;;;12.40;8.60;;;;;;5085565;28;34423;-77
2022/07/15 03:16:06;;;;;;;1.60;1.50;;;12.40;8.60;;;;;;5068252;28;35585;-77
2022/07/15 03:18:50;;;;;;;1.65;1.55;;;12.40;8.60;;;;;;5085873;28;34084;-76
2022/07/15 03:21:16;;;;;;;1.65;1.55;;;12.30;11.10;;;;;;5068070;28;34163;-76
2022/07/15 03:23:45;;;;;;;4.68;1.77;;;12.30;8.70;;;;;;5034849;28;34409;-76
2022/07/15 03:27:02;;;;;;;2.53;1.60;;;12.20;9.20;;;;;;5020018;28;34089;-77
2022/07/15 03:29:29;;;;;;;2.55;1.35;;;12.20;11.80;;;;;;5035957;28;34120;-77
2022/07/15 03:32:15;;;;;;;3.53;1.60;;;12.20;8.90;;;;;;5018805;28;34417;-76
2022/07/15 03:34:58;;;;;;;1.70;1.38;;;12.20;11.80;;;;;;5019699;28;34399;-76
2022/07/15 03:37:50;;;;;;;2.22;1.58;;;12.20;12.00;;;;;;5002352;28;36283;-77
2022/07/15 03:40:16;;;;;;;1.73;1.50;;;12.20;12.00;;;;;;5021285;28;34039;-77
2022/07/15 03:42:42;;;;;;;1.50;1.33;;;12.10;9.00;;;;;;5027805;28;34136;-76
2022/07/15 03:45:15;;;;;;;1.92;1.38;;;12.10;9.10;;;;;;5044995;28;34199;-76
2022/07/15 03:47:41;;;;;;;2.35;1.88;;;12.10;10.50;;;;;;5061758;28;34169;-76
2022/07/15 03:50:08;;;;;;;1.42;1.33;;;12.10;9.10;;;;;;5045078;28;34146;-77
2022/07/15 03:52:34;;;;;;;3.58;1.40;;;12.10;9.20;;;;;;5045281;28;34399;-77
2022/07/15 03:55:07;;;;;;;1.73;1.63;;;12.10;9.10;;;;;;5045233;28;34130;-77
2022/07/15 03:57:33;;;;;;;3.67;1.70;;;12.10;9.90;;;;;;5061874;28;34919;-77
2022/07/15 03:59:59;;;;;;;1.60;1.50;;;12.10;9.20;;;;;;5043493;27;34123;-77
2022/07/15 04:02:25;;;;;;;2.63;1.60;;;12.10;9.30;;;;;;5038322;28;34276;-77
2022/07/15 04:04:52;;;;;;;1.67;1.35;;;12.10;9.30;;;;;;5021756;28;34203;-76
2022/07/15 04:07:30;;;;;;;2.83;1.50;;;12.10;9.40;;;;;;5037643;28;36118;-77
2022/07/15 04:09:56;;;;;;;3.25;1.70;;;12.10;11.80;;;;;;5022533;28;34213;-77
2022/07/15 04:12:22;;;;;;;1.48;1.38;;;12.00;9.50;;;;;;5083457;27;34087;-77
2022/07/15 04:14:48;;;;;;;3.13;1.75;;;12.00;9.50;;;;;;5147906;27;34280;-76
2022/07/15 04:17:14;;;;;;;3.72;1.80;;;12.00;9.50;;;;;;5051864;28;36349;-76
2022/07/15 04:19:40;;;;;;;2.00;1.42;;;12.00;9.60;;;;;;5031236;28;34175;-77
2022/07/15 04:22:06;;;;;;;3.38;1.73;;;12.00;9.50;;;;;;5024831;28;34115;-77
2022/07/15 04:24:32;;;;;;;1.88;1.73;;;12.00;9.60;;;;;;5024898;28;34173;-77
2022/07/15 04:26:58;;;;;;;2.40;1.73;;;12.00;9.60;;;;;;5041094;28;36048;-76
2022/07/15 04:29:24;;;;;;;2.55;1.70;;;12.00;9.60;;;;;;5024752;28;34369;-77
2022/07/15 04:31:50;;;;;;;1.98;1.73;;;12.00;9.70;;;;;;5024554;28;34167;-77
2022/07/15 04:34:16;;;;;;;3.00;1.52;;;12.00;9.70;;;;;;5024775;28;34084;-77
2022/07/15 04:36:42;;;;;;;1.83;1.65;;;12.00;9.80;;;;;;5007396;28;36172;-77
2022/07/15 04:39:08;;;;;;;1.88;1.75;;;12.00;9.90;;;;;;5024142;28;34218;-77
2022/07/15 04:41:34;;;;;;;1.77;1.67;;;12.10;9.90;;;;;;5007985;28;34400;-77
2022/07/15 04:44:00;;;;;;;2.15;1.88;;;12.10;10.00;;;;;;5024236;28;34196;-77
2022/07/15 04:46:26;;;;;;;3.28;2.17;;;12.20;10.10;;;;;;5007693;28;35651;-77
2022/07/15 04:51:33;;;;;;;3.50;1.50;;;12.30;10.10;;;;;;5016665;28;34667;-77
2022/07/15 04:53:59;;;;;;;3.60;1.98;;;12.30;10.20;;;;;;5023819;27;34334;-77
2022/07/15 04:56:25;;;;;;;2.15;1.60;;;12.30;10.20;;;;;;5032100;28;35757;-77
2022/07/15 04:58:51;;;;;;;4.43;2.20;;;12.40;10.10;;;;;;5028649;28;34211;-77
2022/07/15 05:01:17;;;;;;;2.38;1.95;;;12.40;10.10;;;;;;5040957;28;34243;-76
2022/07/15 05:03:43;;;;;;;1.95;1.73;;;12.50;10.20;;;;;;5007342;28;34302;-77
2022/07/15 05:06:09;;;;;;;3.42;2.00;;;12.60;10.20;;;;;;5040823;28;36476;-77
2022/07/15 05:08:35;;;;;;;5.25;2.00;;;12.70;10.20;;;;;;5024088;28;34039;-77
2022/07/15 05:11:01;;;;;;;1.98;1.77;;;12.70;10.30;;;;;;5024378;28;34213;-77
2022/07/15 05:13:26;;;;;;;2.45;1.92;;;12.80;10.20;;;;;;5013190;28;34086;-76
2022/07/15 05:15:52;;;;;;;2.78;1.98;;;12.90;10.30;;;;;;5003637;28;36215;-77
2022/07/15 05:18:18;;;;;;;2.78;1.92;;;13.00;10.20;;;;;;5004643;28;34813;-77
2022/07/15 05:20:44;;;;;;;3.70;1.83;;;13.10;10.30;;;;;;5037122;28;34082;-78
2022/07/15 05:23:10;;;;;;;6.57;2.50;;;13.30;10.40;;;;;;5038620;28;34081;-76
2022/07/15 05:25:36;;;;;;;2.72;2.53;;;13.50;10.30;;;;;;5041026;28;34749;-76
2022/07/15 05:28:02;;;;;;;3.58;2.42;;;14.10;9.90;;;;;;5023743;28;34250;-77
2022/07/15 05:30:28;;;;;;;3.83;2.53;;;15.00;8.90;;;;;;5023728;28;34375;-77
2022/07/15 05:32:54;;;;;;;8.00;2.40;;;16.00;7.50;;;;;;5004897;28;34163;-77
2022/07/15 05:35:21;;;;;;;3.58;2.40;;;17.10;6.30;;;;;;5021585;28;34340;-77
2022/07/15 05:37:47;;;;;;;3.28;2.75;;;18.10;5.00;;;;;;5021486;27;34079;-77
2022/07/15 05:40:15;;;;;;;4.28;2.78;;;19.00;3.80;;;;;;5005672;28;34104;-77
2022/07/15 05:42:41;;;;;;;4.78;2.60;;;19.80;2.80;;;;;;5037021;28;34280;-77
2022/07/15 05:45:08;;;;;;;4.68;2.92;;;20.50;2.20;;;;;;5036533;28;36532;-77
2022/07/15 05:47:34;;;;;;;5.32;2.70;;;21.30;1.50;;;;;;5054069;28;34311;-77
2022/07/15 05:50:00;;;;;;;8.60;2.75;;;21.90;1.00;;;;;;5003824;28;34164;-77
2022/07/15 05:52:26;;;;;;;3.97;2.83;;;22.60;1.00;;;;;;5040296;28;34159;-77
2022/07/15 05:54:52;;;;;;;5.05;3.13;;;23.00;1.00;;;;;;5023124;28;35713;-77
2022/07/15 05:57:18;;;;;;;6.30;3.20;;;23.50;1.00;;;;;;5023586;28;34182;-78
2022/07/15 05:59:44;;;;;;;7.00;2.78;;;23.90;1.00;;;;;;5007170;28;34265;-77
2022/07/15 06:02:13;;;;;;;8.70;2.95;;;24.40;1.00;;;;;;5059907;27;34537;-79
2022/07/15 06:04:40;;;;;;;3.75;2.70;;;24.80;1.00;;;;;;5027358;28;35551;-78
2022/07/15 06:07:07;;;;;;;6.85;2.92;;;25.20;1.00;;;;;;5051597;28;34244;-77
2022/07/15 06:09:32;;;;;;;4.38;2.40;;;25.50;1.00;;;;;;5052027;27;34173;-77
2022/07/15 06:11:58;;;;;;;3.83;2.72;;;25.80;1.00;;;;;;5018210;28;34099;-77
2022/07/15 06:14:24;;;;;;;11.55;2.47;;;25.90;1.00;;;;;;5028807;27;36286;-78
2022/07/15 06:16:50;;;;;;;6.22;2.72;;;26.30;1.00;;;;;;5044599;27;34315;-78
2022/07/15 06:19:16;;;;;;;5.97;2.92;;;26.60;1.00;;;;;;5052877;27;33801;-77
2022/07/15 06:21:42;;;;;;;7.55;2.63;;;26.80;1.00;;;;;;5050509;27;34408;-78
2022/07/15 06:24:11;;;;;;;4.47;2.55;;;27.20;1.00;;;;;;5022984;28;35554;-79
2022/07/15 06:26:40;;;;;;;5.63;2.67;;;27.50;1.00;;;;;;5036868;27;34298;-78
2022/07/15 06:29:06;;;;;;;4.93;2.13;;;27.90;1.00;;;;;;5025727;28;34274;-78
2022/07/15 06:31:32;;;;;;;14.10;2.78;;;28.00;1.00;;;;;;5011780;28;34239;-78
2022/07/15 06:33:59;;;;;;;4.78;2.28;;;28.20;1.00;;;;;;5007528;28;35962;-78
2022/07/15 06:36:26;;;;;;;5.10;2.50;;;28.40;1.00;;;;;;5035978;28;34143;-78
2022/07/15 06:38:52;;;;;;;4.22;2.05;;;28.70;1.00;;;;;;5030766;28;34163;-77
2022/07/15 06:41:18;;;;;;;3.88;2.55;;;28.70;1.00;;;;;;5024865;28;34224;-78
2022/07/15 06:43:45;;;;;;;3.53;2.33;;;28.70;1.00;;;;;;5024200;28;35812;-78
2022/07/15 06:46:12;;;;;;;5.05;2.50;;;28.70;1.00;;;;;;5065726;27;34428;-78
2022/07/15 06:48:39;;;;;;;3.88;2.30;;;28.70;1.00;;;;;;5091410;27;34245;-79
2022/07/15 06:51:06;;;;;;;2.28;1.90;;;28.80;1.00;;;;;;5074174;27;34186;-79
2022/07/15 06:53:32;;;;;;;4.15;1.88;;;28.80;1.00;;;;;;5040726;28;34237;-80
2022/07/15 06:55:59;;;;;;;5.43;2.20;;;28.80;1.00;;;;;;5038524;28;34193;-78
2022/07/15 06:58:26;;;;;;;5.75;2.40;;;28.90;1.00;;;;;;5027693;28;34237;-78
2022/07/15 07:00:55;;;;;;;4.05;2.25;;;28.90;1.00;;;;;;5022990;27;34215;-79
2022/07/15 07:03:21;;;;;;;2.80;2.28;;;29.00;1.00;;;;;;5071556;27;35832;-79
2022/07/15 07:05:48;;;;;;;2.42;2.05;;;29.00;1.00;;;;;;5033812;28;34371;-79
2022/07/15 07:08:14;;;;;;;3.63;2.10;;;28.90;1.00;;;;;;5020989;28;34031;-79
2022/07/15 07:10:40;;;;;;;5.18;2.15;;;28.70;1.00;;;;;;5088750;27;34365;-78
2022/07/15 07:13:06;;;;;;;3.00;2.00;;;28.50;1.00;;;;;;5058467;28;34050;-78
2022/07/15 07:15:32;;;;;;;5.07;2.08;;;28.30;1.00;;;;;;5059827;28;34169;-78
2022/07/15 07:17:58;;;;;;;4.13;1.80;;;28.20;1.00;;;;;;5028189;28;34449;-77
2022/07/15 07:20:24;;;;;;;2.85;2.08;;;28.20;1.00;;;;;;5089209;27;34193;-77
2022/07/15 07:22:50;;;;;;;3.38;2.22;;;28.00;1.00;;;;;;5019741;28;36159;-76
2022/07/15 07:25:16;;;;;;;2.55;2.13;;;27.80;1.00;;;;;;5025584;28;34337;-79
2022/07/15 07:27:42;;;;;;;4.95;2.42;;;27.60;1.00;;;;;;5034914;28;33715;-78
2022/07/15 07:30:14;;;;;;;3.42;2.10;;;27.40;1.00;;;;;;5034628;28;34178;-79
2022/07/15 07:32:40;;;;;;;3.95;2.00;;;27.20;1.00;;;;;;5037732;28;35656;-77
2022/07/15 07:35:07;;;;;;;3.80;2.25;;;26.90;1.00;;;;;;5036664;28;34171;-77
2022/07/15 07:37:38;;;;;;;3.38;1.85;;;26.60;1.00;;;;;;5022591;28;34305;-79
2022/07/15 07:40:05;;;;;;;9.27;2.10;;;26.40;1.00;;;;;;5035826;28;34180;-78
2022/07/15 07:42:31;;;;;;;4.03;2.00;;;26.40;1.00;;;;;;5042475;28;35817;-78
2022/07/15 07:44:59;;;;;;;3.22;2.13;;;26.60;1.00;;;;;;5011422;28;34225;-78
2022/07/15 07:47:25;;;;;;;4.32;1.70;;;26.80;1.00;;;;;;5035475;27;34348;-79
2022/07/15 07:49:51;;;;;;;2.38;1.83;;;26.90;1.00;;;;;;5028041;28;34356;-79
2022/07/15 07:52:17;;;;;;;2.40;1.58;;;27.10;1.00;;;;;;5034281;28;36355;-79
2022/07/15 07:54:43;;;;;;;3.67;1.70;;;27.40;1.00;;;;;;5025249;28;34360;-79
2022/07/15 07:57:10;;;;;;;3.67;1.80;;;27.50;1.00;;;;;;5055416;27;34338;-78
2022/07/15 07:59:36;;;;;;;2.58;2.00;;;27.50;1.00;;;;;;5011101;28;34224;-79
2022/07/15 08:02:04;;;;;;;3.03;1.88;;;27.50;1.00;;;;;;5038817;27;35764;-78
2022/07/15 08:04:30;;;;;;;3.10;1.75;;;27.70;1.00;;;;;;5034184;27;34451;-78
2022/07/15 08:06:57;;;;;;;3.75;2.10;;;27.50;1.00;;;;;;5024785;28;33987;-77
2022/07/15 08:09:23;;;;;;;3.42;1.58;;;27.40;1.00;;;;;;5025330;28;34287;-78
2022/07/15 08:11:49;;;;;;;4.75;1.83;;;27.60;1.00;;;;;;5043448;28;34203;-77
2022/07/15 08:14:15;;;;;;;4.80;1.73;;;27.80;1.00;;;;;;5009584;28;34304;-79
2022/07/15 08:16:42;;;;;;;5.88;1.77;;;27.50;1.00;;;;;;5025773;28;34313;-78
2022/07/15 08:19:13;;;;;;;7.13;1.90;;;27.50;1.00;;;;;;5026214;28;34537;-79
2022/07/15 08:22:16;;;;;;;2.55;1.50;;;27.10;1.00;;;;;;5026065;28;34310;-78
2022/07/15 08:24:42;;;;;;;3.45;1.92;;;27.10;1.00;;;;;;4999167;28;34485;-78
2022/07/15 08:27:08;;;;;;;3.92;2.00;;;27.20;1.00;;;;;;4985332;28;34212;-77
2022/07/15 08:29:35;;;;;;;1.58;1.48;;;27.00;1.00;;;;;;4983552;28;34403;-77
2022/07/15 08:32:01;;;;;;;1.83;1.50;;;27.10;1.00;;;;;;4997940;28;35525;-77
2022/07/15 08:34:28;;;;;;;1.60;1.50;;;27.20;1.00;;;;;;4985021;28;34131;-78
2022/07/15 08:36:54;;;;;;;1.88;1.67;;;27.10;1.00;;;;;;4985778;28;34488;-77
2022/07/15 08:39:20;;;;;;;1.85;1.40;;;26.80;1.00;;;;;;5001699;28;34345;-78
2022/07/15 08:41:46;;;;;;;3.25;1.77;;;26.40;1.00;;;;;;5001704;28;35697;-78
2022/07/15 08:44:12;;;;;;;2.63;1.60;;;26.10;1.00;;;;;;5001404;28;34343;-78
2022/07/15 08:46:44;;;;;;;1.50;1.40;;;25.80;1.00;;;;;;5021190;28;34090;-77
2022/07/15 08:49:16;;;;;;;9.15;1.88;;;25.30;1.00;;;;;;5022815;28;34072;-78
2022/07/15 08:51:43;;;;;;;2.13;1.42;;;24.90;1.00;;;;;;5087644;28;36537;-77
2022/07/15 08:54:11;;;;;;;2.03;1.40;;;24.60;1.00;;;;;;5024354;28;34233;-77
2022/07/15 08:56:38;;;;;;;1.85;1.60;;;25.10;1.00;;;;;;4982400;28;34287;-78
2022/07/15 08:59:06;;;;;;;2.17;1.30;;;25.40;1.00;;;;;;4986065;28;34212;-79
2022/07/15 09:01:40;;;;;;;1.30;1.20;;;25.90;1.00;;;;;;5001611;28;35849;-79
2022/07/15 09:04:06;;;;;;;7.30;1.67;;;26.30;1.00;;;;;;4987662;28;34287;-78
2022/07/15 09:06:34;;;;;;;3.30;1.23;;;26.80;1.00;;;;;;4981947;28;34276;-76
2022/07/15 09:09:24;;;;;;;1.92;1.50;;;27.40;1.00;;;;;;5055274;28;34372;-76
2022/07/15 09:11:55;;;;;;;1.45;1.35;;;27.90;1.00;;;;;;5105263;28;34163;-78
2022/07/15 09:14:22;;;;;;;1.60;1.45;;;28.00;1.00;;;;;;5105251;28;34392;-79
2022/07/15 09:16:48;;;;;;;1.65;1.13;;;28.00;1.00;;;;;;5056773;28;34243;-79
2022/07/15 09:19:14;;;;;;;1.30;1.10;;;28.20;1.00;;;;;;5002157;28;34190;-77
2022/07/15 09:21:42;;;;;;;3.03;1.30;;;28.20;1.00;;;;;;5000672;28;35912;-77
2022/07/15 09:24:17;;;;;;;1.73;1.17;;;28.20;1.00;;;;;;5020912;28;34355;-77
2022/07/15 09:26:43;;;;;;;1.45;1.20;;;28.40;1.00;;;;;;5041471;28;34246;-77
2022/07/15 09:34:59;;;;;;;1.92;1.27;;;28.70;1.00;;;;;;5102145;27;34215;-80
2022/07/15 09:37:26;;;;;;;3.85;1.50;;;28.70;1.00;;;;;;5021910;28;34146;-79
2022/07/15 09:39:55;;;;;;;1.75;1.10;;;28.70;1.00;;;;;;5003115;28;34483;-77
2022/07/15 09:42:22;;;;;;;1.35;1.10;;;28.90;1.00;;;;;;5004667;28;34235;-77
2022/07/15 09:44:50;;;;;;;3.40;1.38;;;28.90;1.00;;;;;;5005724;28;34065;-78
2022/07/15 09:47:18;;;;;;;1.20;1.10;;;28.90;1.00;;;;;;5027864;28;34230;-78
2022/07/15 09:49:45;;;;;;;1.75;1.20;;;28.90;1.00;;;;;;5041860;28;34494;-77
2022/07/15 09:52:14;;;;;;;1.60;0.93;;;29.00;1.00;;;;;;5008100;28;36148;-81
2022/07/15 09:54:45;;;;;;;3.95;1.10;;;29.00;1.00;;;;;;5051835;27;34114;-77
2022/07/15 09:57:15;;;;;;;2.42;1.00;;;29.20;1.00;;;;;;5115767;27;34288;-79
2022/07/15 09:59:43;;;;;;;16.35;2.03;;;29.10;1.00;;;;;;5051442;27;35696;-78
2022/07/15 10:02:11;;;;;;;3.47;1.30;;;29.30;1.00;;;;;;5004480;28;35702;-77
2022/07/15 10:04:38;;;;;;;1.60;0.98;;;29.50;1.00;;;;;;5014056;28;34235;-78
2022/07/15 10:07:05;;;;;;;1.98;1.13;;;29.60;1.00;;;;;;5025063;28;34152;-80
2022/07/15 10:09:33;;;;;;;4.78;0.90;;;29.80;1.00;;;;;;5016511;28;34521;-79
2022/07/15 10:12:07;;;;;;;3.00;1.15;;;29.80;1.00;;;;;;5014829;28;36403;-77
2022/07/15 10:14:55;;;;;;;1.52;0.90;;;29.90;1.00;;;;;;5029739;27;34354;-78
2022/07/15 10:17:45;;;;;;;1.63;1.08;;;29.90;1.00;;;;;;5004658;28;34265;-79
2022/07/15 10:20:40;;;;;;;1.13;0.80;;;29.80;1.00;;;;;;5002603;28;34404;-76
2022/07/15 10:23:36;;;;;;;1.25;1.15;;;29.70;1.00;;;;;;5005850;28;35153;-78
2022/07/15 10:26:33;;;;;;;1.88;0.90;;;29.20;1.00;;;;;;5101999;27;34341;-76
2022/07/15 10:29:04;;;;;;;2.75;1.20;;;29.20;1.00;;;;;;5074766;27;34392;-76
2022/07/15 10:31:32;;;;;;;2.35;0.88;;;29.20;1.00;;;;;;5034170;27;34245;-78
2022/07/15 10:34:18;;;;;;;1.88;0.82;;;29.30;1.00;;;;;;5016728;28;36146;-78
2022/07/15 10:36:57;;;;;;;1.40;0.80;;;29.30;1.00;;;;;;5021493;28;34223;-77
2022/07/15 10:39:28;;;;;;;1.50;0.88;;;29.10;1.00;;;;;;5022632;28;34204;-79
2022/07/15 10:41:58;;;;;;;2.60;0.93;;;29.20;1.00;;;;;;5020917;27;34508;-78
2022/07/15 10:44:28;;;;;;;2.50;1.00;;;29.40;1.00;;;;;;5029625;28;35672;-78
2022/07/15 10:47:17;;;;;;;0.93;0.70;;;29.70;1.00;;;;;;5070840;27;34211;-79
2022/07/15 10:49:50;;;;;;;0.88;0.80;;;29.90;1.00;;;;;;5033558;27;34328;-79
2022/07/15 10:52:23;;;;;;;2.15;0.90;;;30.10;1.00;;;;;;5031332;27;34471;-79
2022/07/15 10:55:00;;;;;;;1.08;0.60;;;30.30;1.00;;;;;;5011097;28;35483;-81
2022/07/15 10:57:49;;;;;;;0.60;0.60;;;30.40;1.00;;;;;;5037204;28;34277;-79
2022/07/15 11:00:36;;;;;;;2.45;0.70;;;30.50;1.00;;;;;;5029965;28;34202;-80
2022/07/15 11:03:09;;;;;;;2.40;0.90;;;30.60;1.00;;;;;;5036547;28;34083;-78
2022/07/15 11:06:01;;;;;;;1.10;0.70;;;30.60;1.00;;;;;;5057024;27;35846;-76
2022/07/15 11:08:48;;;;;;;1.42;0.80;;;30.70;1.00;;;;;;5019887;28;34085;-78
2022/07/15 11:11:49;;;;;;;1.38;0.82;;;30.60;1.00;;;;;;5050312;28;34140;-78
2022/07/15 11:14:46;;;;;;;2.22;0.57;;;30.40;1.00;;;;;;5049214;28;34535;-77
2022/07/15 11:17:16;;;;;;;2.40;0.85;;;30.30;1.00;;;;;;5040086;28;36119;-77
2022/07/15 11:19:46;;;;;;;1.30;0.70;;;30.10;1.00;;;;;;5023570;28;34107;-78
2022/07/15 11:22:12;;;;;;;0.95;0.80;;;30.10;1.00;;;;;;5117422;27;34165;-80
2022/07/15 11:24:38;;;;;;;1.50;0.70;;;30.10;1.00;;;;;;5054171;27;34071;-79
2022/07/15 11:27:04;;;;;;;0.98;0.70;;;30.00;1.00;;;;;;5012281;28;35641;-80
2022/07/15 11:29:47;;;;;;;1.10;0.85;;;30.00;1.00;;;;;;5029791;28;34410;-80
2022/07/15 11:32:15;;;;;;;0.85;0.77;;;30.10;1.00;;;;;;5022192;28;34052;-79
2022/07/15 11:34:47;;;;;;;0.82;0.60;;;30.10;1.00;;;;;;5080127;27;34220;-77
2022/07/15 11:37:18;;;;;;;2.63;0.77;;;30.00;1.00;;;;;;5105819;27;35821;-78
2022/07/15 11:39:47;;;;;;;0.93;0.68;;;30.00;1.00;;;;;;5024818;27;35523;-77
2022/07/15 11:45:04;;;;;;;2.80;0.60;;;30.50;1.00;;;;;;5073971;27;34293;-79
2022/07/15 11:47:31;;;;;;;1.05;0.60;;;30.80;1.00;;;;;;5093403;27;34351;-80
2022/07/15 11:50:03;;;;;;;1.10;0.70;;;31.00;1.00;;;;;;5057765;28;34349;-78
2022/07/15 11:52:30;;;;;;;0.50;0.50;;;31.00;1.00;;;;;;5047586;27;34340;-77
2022/07/15 11:54:56;;;;;;;1.35;0.80;;;30.90;1.00;;;;;;5038207;28;34536;-77
2022/07/15 11:57:22;;;;;;;0.43;0.43;;;31.00;1.00;;;;;;5025161;28;35920;-80
2022/07/15 11:59:54;;;;;;;1.45;0.40;;;30.90;1.00;;;;;;5024817;28;34262;-77
2022/07/15 12:02:24;;;;;;;1.13;0.50;;;30.80;1.00;;;;;;5014793;28;34402;-77
2022/07/15 12:04:51;;;;;;;3.05;0.65;;;30.60;1.00;;;;;;5020579;28;34246;-79
2022/07/15 12:07:17;;;;;;;0.45;0.45;;;30.50;1.00;;;;;;5015539;28;34466;-77
2022/07/15 12:09:46;;;;;;;0.70;0.52;;;30.50;1.00;;;;;;5048143;27;34338;-81
2022/07/15 12:12:13;;;;;;;1.25;0.63;;;30.70;1.00;;;;;;5029005;28;34593;-80
2022/07/15 12:14:40;;;;;;;3.30;0.47;;;30.80;1.00;;;;;;5028499;28;34466;-77
2022/07/15 12:17:06;;;;;;;1.10;0.70;;;31.00;1.00;;;;;;5028554;28;36088;-79
2022/07/15 12:19:33;;;;;;;1.40;0.60;;;31.20;1.00;;;;;;5025634;28;34410;-78
2022/07/15 12:22:05;;;;;;;2.20;0.55;;;31.20;1.00;;;;;;5025364;28;34418;-79
2022/07/15 12:24:44;;;;;;;0.73;0.45;;;31.20;1.00;;;;;;5022885;28;34126;-78
2022/07/15 12:27:11;;;;;;;4.30;0.70;;;31.00;1.00;;;;;;5031340;28;35614;-78
2022/07/15 12:29:38;;;;;;;1.33;0.68;;;31.10;1.00;;;;;;5006979;28;34312;-80
2022/07/15 12:32:08;;;;;;;3.05;0.60;;;31.00;1.00;;;;;;5056466;28;34027;-77
2022/07/15 12:34:52;;;;;;;0.50;0.50;;;31.10;1.00;;;;;;5041956;28;34178;-78
2022/07/15 12:37:27;;;;;;;2.88;0.50;;;31.10;1.00;;;;;;5058356;27;35658;-79
2022/07/15 12:40:12;;;;;;;1.50;0.50;;;31.10;1.00;;;;;;5026870;28;34371;-78
2022/07/15 12:42:48;;;;;;;0.95;0.50;;;31.10;1.00;;;;;;5059279;28;34165;-81
2022/07/15 12:45:26;;;;;;;1.02;0.60;;;30.90;1.00;;;;;;5022900;28;34280;-77
2022/07/15 12:48:08;;;;;;;0.60;0.55;;;30.70;1.00;;;;;;5067468;27;35504;-79
2022/07/15 12:50:51;;;;;;;1.15;0.70;;;30.70;1.00;;;;;;5091861;27;34229;-79
2022/07/15 12:53:19;;;;;;;2.47;0.70;;;30.60;1.00;;;;;;5089819;27;34950;-77
2022/07/15 12:55:48;;;;;;;1.25;0.60;;;30.60;1.00;;;;;;5051189;27;34324;-77
2022/07/15 12:58:17;;;;;;;0.55;0.55;;;30.60;1.00;;;;;;5020258;28;35781;-77
2022/07/15 13:00:45;;;;;;;0.50;0.50;;;30.30;1.00;;;;;;4988480;28;34261;-78
2022/07/15 13:03:18;;;;;;;0.70;0.70;;;30.20;1.00;;;;;;5002094;28;34351;-78
2022/07/15 13:05:47;;;;;;;1.38;0.70;;;30.20;1.00;;;;;;5062005;27;34409;-77
2022/07/15 13:08:16;;;;;;;0.80;0.70;;;30.40;1.00;;;;;;5051776;27;35509;-76
2022/07/15 13:10:45;;;;;;;0.68;0.50;;;30.50;1.00;;;;;;5040969;28;35224;-77
2022/07/15 13:13:13;;;;;;;0.68;0.65;;;30.40;1.00;;;;;;5025160;28;34508;-78
2022/07/15 13:15:39;;;;;;;1.05;0.68;;;30.50;1.00;;;;;;5053271;27;34279;-78
2022/07/15 13:18:05;;;;;;;1.27;0.70;;;30.40;1.00;;;;;;5058236;27;35548;-79
2022/07/15 13:20:31;;;;;;;0.52;0.50;;;30.50;1.00;;;;;;5058564;27;34672;-79
2022/07/15 13:22:57;;;;;;;1.35;0.93;;;30.40;1.00;;;;;;5062041;27;35761;-76